createdAt,value
2018-11-20T13:05:25.404Z,13.50
2018-11-20T13:10:45.167Z,8.98
2018-11-20T13:16:05.824Z,6.50
2018-11-20T13:21:28.179Z,6.35
2018-11-20T13:26:44.580Z,5.81
2018-11-20T13:32:22.119Z,5.64
2018-11-20T13:37:41.521Z,5.69
2018-11-20T13:42:55.690Z,5.57
2018-11-20T13:48:16.721Z,5.51
2018-11-20T13:53:45.930Z,5.53
2018-11-20T13:59:14.857Z,5.39
2018-11-20T14:04:52.703Z,5.20
2018-11-20T14:10:06.211Z,5.29
2018-11-20T14:15:41.174Z,5.36
2018-11-20T14:21:16.026Z,5.32
2018-11-20T14:26:34.830Z,5.27
2018-11-20T14:31:58.723Z,5.19
2018-11-20T14:37:33.539Z,5.13
2018-11-20T14:42:54.455Z,5.13
2018-11-20T14:48:36.394Z,5.13
2018-11-20T14:54:02.105Z,5.08
2018-11-20T14:59:40.071Z,5.18
2018-11-20T15:05:01.881Z,5.16
2018-11-20T15:10:20.816Z,5.01
2018-11-20T15:15:59.997Z,5.03
2018-11-20T15:21:25.944Z,4.99
2018-11-20T15:26:39.836Z,5.04
2018-11-20T15:32:02.188Z,5.27
2018-11-20T15:37:15.205Z,5.09
2018-11-20T15:42:43.329Z,5.19
2018-11-20T15:48:04.162Z,5.23
2018-11-20T15:53:44.516Z,5.28
2018-11-20T15:59:05.638Z,5.21
2018-11-20T16:04:26.678Z,5.27
2018-11-20T16:09:47.510Z,5.25
2018-11-20T16:15:14.470Z,5.40
2018-11-20T16:20:28.338Z,5.47
2018-11-20T16:25:53.031Z,5.57
2018-11-20T16:31:05.284Z,5.56
2018-11-20T16:36:42.868Z,5.55
2018-11-20T16:42:03.406Z,5.46
2018-11-20T16:47:34.238Z,5.50
2018-11-20T16:52:59.780Z,5.61
2018-11-20T16:58:15.281Z,5.59
2018-11-20T17:03:43.205Z,5.44
2018-11-20T17:08:58.366Z,5.47
2018-11-20T17:14:15.592Z,5.40
2018-11-20T17:19:30.168Z,5.55
2018-11-20T17:24:50.473Z,5.66
2018-11-20T17:30:20.499Z,5.44
2018-11-20T17:35:57.973Z,5.40
2018-11-20T17:41:23.183Z,5.32
2018-11-20T17:46:43.990Z,5.32
2018-11-20T17:52:05.120Z,5.22
2018-11-20T17:57:27.176Z,5.31
2018-11-20T18:03:07.866Z,5.36
2018-11-20T18:08:30.846Z,5.33
2018-11-20T18:13:51.242Z,5.29
2018-11-20T18:19:16.278Z,5.14
2018-11-20T18:24:50.426Z,5.33
2018-11-20T18:30:15.239Z,5.32
2018-11-20T18:35:36.763Z,5.15
2018-11-20T18:40:58.818Z,5.16
2018-11-20T18:46:12.075Z,5.31
2018-11-20T18:51:46.347Z,5.21
2018-11-20T18:57:17.564Z,5.10
2018-11-20T19:02:34.403Z,5.05
2018-11-20T19:08:03.136Z,5.15
2018-11-20T19:13:31.797Z,5.06
2018-11-20T19:18:53.568Z,5.06
2018-11-20T19:24:07.716Z,4.86
2018-11-20T19:29:29.709Z,5.01
2018-11-20T19:34:51.336Z,4.88
2018-11-20T19:40:09.156Z,4.78
2018-11-20T19:45:31.634Z,4.85
2018-11-20T19:50:57.919Z,4.90
2018-11-20T19:56:19.903Z,4.94
2018-11-20T20:01:35.252Z,4.90
2018-11-20T20:06:56.258Z,4.64
2018-11-20T20:12:27.945Z,4.82
2018-11-20T20:17:51.527Z,4.76
2018-11-20T20:23:12.800Z,4.76
2018-11-20T20:28:51.139Z,4.78
2018-11-20T20:34:20.126Z,4.82
2018-11-20T20:39:52.872Z,4.78
2018-11-20T20:45:27.662Z,4.67
2018-11-20T20:50:52.991Z,4.85
2018-11-20T20:56:13.329Z,4.80
2018-11-20T21:01:39.017Z,4.77
2018-11-20T21:07:06.898Z,4.77
2018-11-20T21:12:46.787Z,4.66
2018-11-20T21:18:07.515Z,4.64
2018-11-20T21:23:36.742Z,4.65
2018-11-20T21:29:01.370Z,4.61
2018-11-20T21:34:19.103Z,4.41
2018-11-20T21:39:46.477Z,4.62
2018-11-20T21:45:07.707Z,4.45
2018-11-20T21:50:30.042Z,4.47
2018-11-20T21:56:07.375Z,4.53
2018-11-20T22:01:28.507Z,4.35
2018-11-20T22:06:49.424Z,4.51
2018-11-20T22:12:14.544Z,4.55
2018-11-20T22:17:54.625Z,4.42
2018-11-20T22:23:22.924Z,4.35
2018-11-20T22:28:43.530Z,4.44
2018-11-20T22:34:23.601Z,4.27
2018-11-20T22:39:46.069Z,4.38
2018-11-20T22:45:11.168Z,4.43
2018-11-20T22:50:32.825Z,4.45
2018-11-20T22:55:53.553Z,4.59
2018-11-20T23:01:15.910Z,4.44
2018-11-20T23:06:36.498Z,4.44
2018-11-20T23:11:38.679Z,4.21
2018-11-20T23:16:41.338Z,4.34
2018-11-20T23:21:43.804Z,4.34
2018-11-20T23:26:46.638Z,4.27
2018-11-20T23:31:49.812Z,4.17
2018-11-20T23:36:52.796Z,4.20
2018-11-20T23:41:55.513Z,4.26
2018-11-20T23:46:57.908Z,4.24
2018-11-20T23:52:00.468Z,4.44
2018-11-20T23:57:03.047Z,4.35
